Airfield :
LOGIN :

Register | Disclaimer

   EN    FR    IT 

 










Legend :    VFR   Marginal VFR   IFR   Intensive IFR   Very Intensive IFR
Visi :
Ceiling :
>= 8 km
>= 3000ft
5 to 8 km
1000 to 3000 ft
1500m to 5 km
500 to 1000 ft
800 to 1500m
200 to 500 ft
< 800m
< 200 ft
Symbols :   Thunderstorms  Fog  Heavy snow  Heavy precipitations  Wind > 20 kt
SIGMETs :     Misc.  Thunderstorms  Icing  Turbulence  Mountain Waves  Volcanic Ashes






- Airport Elevation : 265 ft


LFMC - Le Luc

CURRENT METAR :
  • 152000Z AUTO 02005KT 340V060 9999 FEW017/// BKN032/// BKN045/// ///CB 07/06 Q1002

EXPIRED METARs :
  • 151930Z AUTO 03004KT 330V080 7000 +RA FEW033/// OVC043/// ///CB 07/06 Q1001
  • 151900Z AUTO 14003KT 040V200 7000 2500 RA SCT038/// BKN044/// OVC052/// ///CB 08/07 Q1001
  • 151830Z AUTO 17006KT 130V220 9999 RA FEW024/// BKN044/// ///CB 08/07 Q1001
  • 151800Z AUTO 25003KT 9999 ///CB 08/07 Q1001
  • 151730Z AUTO VRB02KT CAVOK 08/06 Q1001

TAF N/A



MET'MAP, your aeronautical weather chart ! - Copyright ORBIFLY December 2007 - Disclaimer

ORBIFLY MET'MAP TEAM :

Programming & Development : Alexandra Zaïnal
Concept & Development : Baudouin d'Aumeries
Co-Development & Prog : Marc-Olivier Méhu
Technical & hardware support : Manuel Goepfert

Contact : metmap@orbifly.com




SOURCES & CREDITS :

   NOAA